Endicott, Washington
Current Conditions -  °F | °C
As of 4:53 PM on Sunday 23 Nov 2014 (Local Time) from KPUW Reporting Station
Scattered Clouds Scattered Clouds  
Wind Chill: 31°   Ceiling: Unl
Heat Index: 40°   Visibility: 10mi
Dew Point: 37°   Wind: 17mph
Humidity: 89%   Direction: 250°WSW
Pressure: 30.07"   Gusts: 25mph
Location:  46.93°N, 117.68°W
Report Text: KPUW 240053Z AUTO 25015G22KT 10SM FEW100 SCT120 04/03 A3007 RMK AO2 PK WND 24027/0010 SLP198 T00440028
Loading
Personal Weather Stations






























Interactive Weather Map New forecast layout! Learn more

10-Day Weather Forecast

Advertisements
Track Severe Weather on mobile